LFCR/RDZ METAR and TAF weather

Enter ICAO airport designator
Station Type Date Time Source
LFCR METAR 2021/01/20 23:30 UTC NOAA

LFCR 202330Z AUTO 15011KT CAVOK 08/05 Q1004 NOSIG


Station Type Date Time Source
LFCR Decoded METAR 2021/01/20 23:30 UTC NOAA

Rodez, France (LFCR) 44-24N 002-29E 580M
Jan 20, 2021 - 06:30 PM EST / 2021.01.20 2330 UTC
Wind: from the SSE (150 degrees) at 13 MPH (11 KT):0
Visibility: greater than 7 mile(s):0
Temperature: 46 F (8 C)
Dew Point: 41 F (5 C)
Relative Humidity: 81%
Pressure (altimeter): 29.65 in. Hg (1004 hPa)
ob: LFCR 202330Z AUTO 15011KT CAVOK 08/05 Q1004 NOSIG
cycle: 23

Station Type Date Time Source
LFCR TAF 2021/01/20 18:44 UTC NOAA

TAF LFCR 201700Z 2018/2118 14022G35KT CAVOK PROB30
TEMPO 2018/2020 BKN013
BECMG 2100/2102 16010KT BKN040
BECMG 2104/2106 23010KT PROB30
TEMPO 2023/2110 4000 -RA BKN013

Example: see airport list